Time;durP1;ratioP1;P1;durP2;ratioP2;P2;SDS_P1;SDS_P2;PMS_P1;PMS_P2;Temp;Humidity;BMP_temperature;BMP_pressure;BME280_temperature;BME280_humidity;BME280_pressure;Samples;Min_cycle;Max_cycle;Signal;HPM_P1;HPM_P2
2022/07/19 00:01:51;;;;;;;4.13;2.00;;;21.60;47.20;;;;;;5114219;28;20526;-72
2022/07/19 00:04:17;;;;;;;3.13;1.60;;;21.60;47.70;;;;;;5115562;28;20066;-73
2022/07/19 00:06:43;;;;;;;2.88;1.63;;;21.60;47.80;;;;;;5115070;28;20023;-71
2022/07/19 00:09:09;;;;;;;2.70;1.83;;;21.50;47.80;;;;;;5100224;28;20024;-73
2022/07/19 00:11:34;;;;;;;2.10;1.73;;;21.50;47.70;;;;;;5093766;28;20020;-74
2022/07/19 00:14:00;;;;;;;2.10;1.85;;;21.50;47.90;;;;;;5093670;28;20028;-76
2022/07/19 00:16:26;;;;;;;2.42;1.73;;;21.40;48.40;;;;;;5094853;28;20105;-73
2022/07/19 00:18:52;;;;;;;3.30;2.05;;;21.40;48.00;;;;;;5093721;28;20060;-73
2022/07/19 00:21:18;;;;;;;3.15;1.73;;;21.40;48.10;;;;;;5093217;28;20044;-73
2022/07/19 00:23:43;;;;;;;3.47;1.98;;;21.40;48.20;;;;;;5094754;28;20477;-72
2022/07/19 00:26:09;;;;;;;3.15;1.67;;;21.40;48.30;;;;;;5093525;28;20024;-71
2022/07/19 00:28:35;;;;;;;3.60;1.83;;;21.30;48.20;;;;;;5093311;28;20396;-71
2022/07/19 00:31:00;;;;;;;4.50;2.30;;;21.30;48.40;;;;;;5094660;28;20089;-71
2022/07/19 00:33:26;;;;;;;2.25;1.85;;;21.30;48.80;;;;;;5098966;28;20127;-73
2022/07/19 00:35:53;;;;;;;3.47;1.90;;;21.30;48.50;;;;;;5114893;28;20032;-73
2022/07/19 00:38:19;;;;;;;2.53;1.45;;;21.20;48.40;;;;;;5114524;28;20024;-74
2022/07/19 00:40:45;;;;;;;3.20;1.70;;;21.20;48.30;;;;;;5112373;28;20028;-74
2022/07/19 00:43:12;;;;;;;2.90;1.80;;;21.20;48.60;;;;;;5114793;28;20066;-74
2022/07/19 00:45:38;;;;;;;2.25;1.52;;;21.20;48.60;;;;;;5113514;28;20028;-74
2022/07/19 00:48:04;;;;;;;5.03;1.80;;;21.10;48.40;;;;;;5114537;28;20088;-72
2022/07/19 00:50:31;;;;;;;5.60;2.10;;;21.10;48.40;;;;;;5114673;28;20459;-74
2022/07/19 00:53:05;;;;;;;2.17;1.63;;;21.00;48.50;;;;;;5114603;28;20030;-71
2022/07/19 00:55:35;;;;;;;3.83;1.98;;;21.00;48.90;;;;;;5114610;27;20015;-70
2022/07/19 00:58:02;;;;;;;4.60;1.98;;;21.00;49.00;;;;;;5114382;28;20103;-71
2022/07/19 01:00:31;;;;;;;5.43;2.60;;;21.00;49.00;;;;;;5113936;28;20019;-70
2022/07/19 01:02:58;;;;;;;3.63;1.73;;;20.90;49.10;;;;;;5112995;28;20477;-75
2022/07/19 01:05:23;;;;;;;2.60;1.77;;;20.90;49.10;;;;;;5099437;28;20115;-71
2022/07/19 01:07:49;;;;;;;3.50;2.10;;;20.90;49.00;;;;;;5098632;28;20126;-75
2022/07/19 01:10:16;;;;;;;1.90;1.50;;;20.90;49.00;;;;;;5092483;28;20027;-71
2022/07/19 01:12:43;;;;;;;3.67;1.88;;;20.80;48.90;;;;;;5093837;28;20408;-74
2022/07/19 01:15:18;;;;;;;3.97;1.85;;;20.80;49.00;;;;;;5093707;28;20259;-71
2022/07/19 01:17:45;;;;;;;4.80;1.77;;;20.80;49.20;;;;;;5093701;28;20495;-73
2022/07/19 01:20:11;;;;;;;3.47;2.10;;;20.70;49.20;;;;;;5093473;28;20125;-74
2022/07/19 01:22:37;;;;;;;3.05;1.70;;;20.70;49.20;;;;;;5093676;28;20050;-74
2022/07/19 01:25:03;;;;;;;4.53;2.33;;;20.70;49.30;;;;;;5093583;28;20527;-72
2022/07/19 01:27:29;;;;;;;3.13;1.85;;;20.60;50.30;;;;;;5093396;28;20035;-74
2022/07/19 01:29:55;;;;;;;3.00;1.80;;;20.60;49.60;;;;;;5093502;28;20112;-73
2022/07/19 01:32:21;;;;;;;4.70;1.70;;;20.60;49.80;;;;;;5092124;28;20416;-71
2022/07/19 01:34:47;;;;;;;2.53;1.80;;;20.60;49.70;;;;;;5093761;28;20024;-73
2022/07/19 01:37:13;;;;;;;2.25;1.50;;;20.50;49.90;;;;;;5093303;28;20388;-76
2022/07/19 01:39:39;;;;;;;2.40;1.58;;;20.50;50.10;;;;;;5093295;28;20119;-74
2022/07/19 01:42:04;;;;;;;2.75;1.58;;;20.50;50.40;;;;;;5093292;28;20028;-73
2022/07/19 01:44:30;;;;;;;3.17;1.48;;;20.50;50.20;;;;;;5093210;28;20024;-74
2022/07/19 01:46:56;;;;;;;2.70;1.40;;;20.40;50.40;;;;;;5093124;28;20032;-75
2022/07/19 01:49:22;;;;;;;3.75;1.50;;;20.50;50.30;;;;;;5093089;28;20075;-71
2022/07/19 01:51:47;;;;;;;2.45;1.33;;;20.50;50.60;;;;;;5093126;28;20363;-72
2022/07/19 01:54:13;;;;;;;2.88;1.45;;;20.40;50.50;;;;;;5093010;28;20036;-75
2022/07/19 01:56:43;;;;;;;2.72;1.73;;;20.40;50.50;;;;;;5093080;28;20059;-74
2022/07/19 01:59:08;;;;;;;3.45;1.52;;;20.40;50.70;;;;;;5092862;28;20016;-73
2022/07/19 02:01:34;;;;;;;3.05;1.50;;;20.40;50.50;;;;;;5092815;28;20021;-71
2022/07/19 02:04:00;;;;;;;2.88;1.60;;;20.30;50.50;;;;;;5093429;28;20039;-71
2022/07/19 02:06:26;;;;;;;2.58;1.45;;;20.30;50.60;;;;;;5091440;28;20469;-73
2022/07/19 02:08:52;;;;;;;2.17;1.60;;;20.30;50.70;;;;;;5092678;28;20024;-72
2022/07/19 02:11:36;;;;;;;2.28;1.50;;;20.30;50.80;;;;;;5090656;28;20077;-74
2022/07/19 02:14:03;;;;;;;1.80;1.60;;;20.30;51.10;;;;;;5091542;28;20036;-71
2022/07/19 02:16:29;;;;;;;3.63;1.58;;;20.20;50.90;;;;;;5092663;28;20029;-74
2022/07/19 02:18:54;;;;;;;2.10;1.40;;;20.20;50.90;;;;;;5091272;28;20032;-72
2022/07/19 02:21:20;;;;;;;2.70;1.63;;;20.10;51.10;;;;;;5092399;28;20123;-75
2022/07/19 02:23:46;;;;;;;4.55;1.85;;;20.10;51.20;;;;;;5092453;28;20469;-71
2022/07/19 02:26:12;;;;;;;2.95;1.55;;;20.10;51.20;;;;;;5091301;28;20431;-70
2022/07/19 02:28:37;;;;;;;6.55;1.75;;;20.10;51.30;;;;;;5092388;28;20054;-73
2022/07/19 02:31:04;;;;;;;2.80;1.77;;;20.10;51.60;;;;;;5092471;28;20027;-72
2022/07/19 02:33:30;;;;;;;5.35;1.52;;;20.10;51.60;;;;;;5092657;28;20049;-72
2022/07/19 02:35:56;;;;;;;2.38;1.70;;;20.10;51.60;;;;;;5092367;28;20028;-74
2022/07/19 02:38:22;;;;;;;4.80;1.80;;;20.00;52.20;;;;;;5092249;28;20031;-74
2022/07/19 02:40:48;;;;;;;4.80;1.83;;;20.00;51.70;;;;;;5092303;28;20036;-75
2022/07/19 02:43:14;;;;;;;2.15;1.70;;;20.00;51.50;;;;;;5092379;28;20048;-71
2022/07/19 02:45:40;;;;;;;4.43;1.65;;;20.00;51.70;;;;;;5091062;28;20031;-71
2022/07/19 02:48:05;;;;;;;4.95;2.45;;;20.00;51.70;;;;;;5092286;28;20024;-73
2022/07/19 02:50:32;;;;;;;3.25;1.65;;;20.00;51.70;;;;;;5092284;28;20031;-71
2022/07/19 02:52:58;;;;;;;2.50;1.52;;;20.00;51.70;;;;;;5091039;28;20099;-74
2022/07/19 02:55:23;;;;;;;3.00;1.52;;;19.90;51.80;;;;;;5092231;28;20421;-75
2022/07/19 02:57:49;;;;;;;4.95;1.70;;;19.90;51.90;;;;;;5092177;28;20043;-71
2022/07/19 03:00:15;;;;;;;2.88;1.55;;;19.90;51.90;;;;;;5090901;28;20111;-72
2022/07/19 03:02:44;;;;;;;4.28;1.80;;;19.90;51.90;;;;;;5092088;28;20028;-71
2022/07/19 03:05:12;;;;;;;1.77;1.45;;;19.90;52.30;;;;;;5095165;28;20024;-78
2022/07/19 03:07:39;;;;;;;4.70;1.85;;;19.80;52.20;;;;;;5111973;28;20028;-71
2022/07/19 03:10:05;;;;;;;2.35;1.73;;;19.80;52.10;;;;;;5113281;28;20099;-74
2022/07/19 03:12:31;;;;;;;7.22;1.60;;;19.80;52.50;;;;;;5112077;28;20088;-73
2022/07/19 03:14:57;;;;;;;2.60;1.80;;;19.80;52.50;;;;;;5113296;28;20465;-75
2022/07/19 03:17:23;;;;;;;3.35;2.20;;;19.80;52.40;;;;;;5113249;28;20464;-70
2022/07/19 03:19:49;;;;;;;3.47;1.77;;;19.80;52.50;;;;;;5112979;28;20024;-72
2022/07/19 03:22:14;;;;;;;2.65;1.98;;;19.80;52.60;;;;;;5114000;28;20028;-74
2022/07/19 03:24:40;;;;;;;5.30;1.77;;;19.70;52.60;;;;;;5117202;28;20362;-72
2022/07/19 03:27:06;;;;;;;5.10;1.98;;;19.70;52.50;;;;;;5117147;28;20038;-75
2022/07/19 03:29:32;;;;;;;5.55;2.03;;;19.70;52.80;;;;;;5117089;28;20023;-71
2022/07/19 03:31:58;;;;;;;4.88;1.73;;;19.70;53.00;;;;;;5115770;28;20073;-74
2022/07/19 03:34:25;;;;;;;2.97;2.10;;;19.70;53.20;;;;;;5104951;28;20436;-70
2022/07/19 03:36:51;;;;;;;4.00;1.63;;;19.70;53.30;;;;;;5095250;28;20080;-75
2022/07/19 03:39:16;;;;;;;3.72;1.90;;;19.80;53.40;;;;;;5095156;28;20032;-72
2022/07/19 03:41:42;;;;;;;4.00;2.03;;;19.80;53.30;;;;;;5096226;28;20032;-73
2022/07/19 03:44:08;;;;;;;5.85;1.80;;;19.80;53.70;;;;;;5096415;28;20024;-75
2022/07/19 03:46:34;;;;;;;4.10;1.70;;;19.80;53.00;;;;;;5096311;28;20024;-72
2022/07/19 03:49:00;;;;;;;7.35;1.90;;;19.80;53.20;;;;;;5096241;28;20377;-74
2022/07/19 03:51:25;;;;;;;7.95;2.38;;;19.80;53.70;;;;;;5096299;28;20077;-73
2022/07/19 03:53:51;;;;;;;4.05;1.80;;;19.80;53.70;;;;;;5096153;28;20133;-74
2022/07/19 03:56:20;;;;;;;7.25;2.13;;;19.80;53.70;;;;;;5096141;28;20044;-74
2022/07/19 03:58:48;;;;;;;2.03;1.55;;;19.90;53.80;;;;;;5095945;28;20407;-69
2022/07/19 04:01:15;;;;;;;3.30;1.67;;;19.90;54.00;;;;;;5094572;28;20020;-70
2022/07/19 04:03:41;;;;;;;6.13;1.70;;;19.90;53.90;;;;;;5095914;28;20099;-73
2022/07/19 04:06:09;;;;;;;10.50;7.45;;;19.90;54.10;;;;;;5096107;28;20036;-75
2022/07/19 04:08:34;;;;;;;5.63;4.35;;;19.90;54.10;;;;;;5094521;28;20038;-74
2022/07/19 04:11:00;;;;;;;4.45;2.70;;;20.00;54.00;;;;;;5094500;28;20103;-77
2022/07/19 04:13:26;;;;;;;2.08;1.65;;;20.00;54.00;;;;;;5095971;28;20020;-74
2022/07/19 04:15:52;;;;;;;7.28;2.58;;;20.00;53.90;;;;;;5111496;28;20031;-78
2022/07/19 04:18:17;;;;;;;4.20;2.20;;;20.10;54.00;;;;;;5095685;28;20020;-76
2022/07/19 04:20:44;;;;;;;3.30;1.90;;;20.10;54.10;;;;;;5095545;28;20135;-74
2022/07/19 04:23:09;;;;;;;3.95;2.28;;;20.10;53.90;;;;;;5095619;28;20058;-74
2022/07/19 04:25:35;;;;;;;4.90;2.20;;;20.20;54.00;;;;;;5095637;28;20517;-74
2022/07/19 04:28:02;;;;;;;6.40;1.83;;;20.20;54.00;;;;;;5095523;28;20384;-77
2022/07/19 04:30:28;;;;;;;10.20;2.30;;;20.20;54.10;;;;;;5095556;28;20031;-73
2022/07/19 04:32:54;;;;;;;8.23;2.65;;;20.30;54.20;;;;;;5095489;28;20032;-74
2022/07/19 04:35:20;;;;;;;7.20;2.00;;;20.30;54.10;;;;;;5094835;28;20032;-72
2022/07/19 04:37:46;;;;;;;5.63;2.50;;;20.40;54.00;;;;;;5095461;28;20382;-73
2022/07/19 04:40:12;;;;;;;5.97;2.33;;;20.40;54.10;;;;;;5095436;28;20239;-76
2022/07/19 04:42:38;;;;;;;6.50;1.70;;;20.50;54.10;;;;;;5095300;28;20027;-73
2022/07/19 04:45:05;;;;;;;9.20;2.40;;;20.50;54.10;;;;;;5095269;28;20028;-72
2022/07/19 04:47:31;;;;;;;4.53;2.45;;;20.50;54.10;;;;;;5095187;28;20025;-71
2022/07/19 04:49:56;;;;;;;3.42;1.95;;;20.60;54.20;;;;;;5095181;28;20020;-75
2022/07/19 04:52:22;;;;;;;5.22;1.98;;;20.60;54.10;;;;;;5093876;28;20111;-73
2022/07/19 04:54:48;;;;;;;4.70;2.00;;;20.70;53.90;;;;;;5095047;28;20024;-75
2022/07/19 04:57:14;;;;;;;6.15;2.10;;;20.70;53.90;;;;;;5093671;28;20484;-74
2022/07/19 04:59:40;;;;;;;4.30;2.08;;;20.80;53.80;;;;;;5094923;28;20130;-76
2022/07/19 05:02:06;;;;;;;6.47;1.95;;;20.80;53.70;;;;;;5094800;28;20021;-72
2022/07/19 05:04:32;;;;;;;4.80;2.15;;;20.80;53.50;;;;;;5095113;28;20028;-72
2022/07/19 05:06:58;;;;;;;5.93;2.30;;;20.90;53.40;;;;;;5111035;28;20023;-75
2022/07/19 05:09:25;;;;;;;12.13;2.22;;;21.00;53.40;;;;;;5115207;28;20098;-71
2022/07/19 05:11:51;;;;;;;4.47;1.85;;;21.00;53.40;;;;;;5115107;28;20022;-75
2022/07/19 05:14:18;;;;;;;3.05;1.83;;;21.10;53.20;;;;;;5115077;28;20024;-76
2022/07/19 05:16:45;;;;;;;4.03;2.40;;;21.20;53.80;;;;;;5115027;28;20026;-73
2022/07/19 05:19:11;;;;;;;3.38;1.95;;;21.20;53.10;;;;;;5113587;28;20068;-75
2022/07/19 05:21:37;;;;;;;6.15;2.42;;;21.20;53.00;;;;;;5114758;28;20044;-71
2022/07/19 05:24:04;;;;;;;2.65;1.77;;;21.30;53.00;;;;;;5113521;28;20020;-73
2022/07/19 05:26:31;;;;;;;6.47;2.22;;;21.40;53.00;;;;;;5114800;27;20012;-76
2022/07/19 05:28:57;;;;;;;4.70;1.92;;;21.40;53.00;;;;;;5113373;28;20104;-74
2022/07/19 05:31:23;;;;;;;5.63;1.85;;;21.50;53.10;;;;;;5116460;27;20019;-77
2022/07/19 05:33:48;;;;;;;2.40;1.88;;;21.50;53.00;;;;;;5106083;28;20012;-73
2022/07/19 05:36:14;;;;;;;3.70;2.40;;;21.60;52.90;;;;;;5114438;28;20038;-72
2022/07/19 05:38:40;;;;;;;8.95;2.47;;;21.70;52.80;;;;;;5114470;28;20605;-76
2022/07/19 05:41:07;;;;;;;3.10;2.15;;;21.70;52.50;;;;;;5108871;28;20053;-73
2022/07/19 05:43:35;;;;;;;3.40;2.20;;;21.80;52.40;;;;;;5092802;28;20024;-73
2022/07/19 05:46:04;;;;;;;3.75;2.13;;;21.90;52.20;;;;;;5092611;28;20024;-74
2022/07/19 05:48:30;;;;;;;3.58;2.30;;;22.00;51.90;;;;;;5093753;28;20384;-74
2022/07/19 05:50:58;;;;;;;3.55;2.55;;;22.00;51.70;;;;;;5093819;28;20022;-73
2022/07/19 05:53:25;;;;;;;4.45;2.20;;;22.10;51.30;;;;;;5092190;28;20130;-73
2022/07/19 05:55:50;;;;;;;8.18;2.58;;;22.10;51.00;;;;;;5093632;28;20327;-74
2022/07/19 05:58:19;;;;;;;5.35;2.25;;;22.20;51.00;;;;;;5093517;28;20031;-74
2022/07/19 06:03:32;;;;;;;3.78;2.45;;;22.40;50.80;;;;;;5106834;28;20034;-74
2022/07/19 06:05:58;;;;;;;5.72;2.17;;;22.40;50.50;;;;;;5093555;28;20024;-76
2022/07/19 06:08:23;;;;;;;4.63;2.88;;;22.50;50.40;;;;;;5093415;28;20029;-76
2022/07/19 06:10:49;;;;;;;5.95;3.38;;;22.60;49.70;;;;;;5092334;28;20381;-75
2022/07/19 06:13:15;;;;;;;8.95;3.33;;;22.60;49.50;;;;;;5092409;28;20086;-74
2022/07/19 06:15:41;;;;;;;11.60;3.75;;;22.70;49.20;;;;;;5093631;28;20430;-75
2022/07/19 06:18:07;;;;;;;9.48;3.40;;;22.70;49.00;;;;;;5092070;28;20028;-72
2022/07/19 06:20:33;;;;;;;12.10;3.85;;;22.80;48.90;;;;;;5093833;28;20054;-71
2022/07/19 06:22:59;;;;;;;6.57;3.72;;;22.90;48.80;;;;;;5113550;28;20049;-76
2022/07/19 06:25:25;;;;;;;7.90;3.67;;;23.00;48.80;;;;;;5113779;28;20553;-74
2022/07/19 06:27:50;;;;;;;9.85;3.85;;;23.00;48.70;;;;;;5111539;28;20517;-75
2022/07/19 06:30:16;;;;;;;191.27;11.00;;;23.10;48.70;;;;;;5113539;28;20514;-72
2022/07/19 06:32:42;;;;;;;17.77;5.15;;;23.20;48.80;;;;;;5109175;28;20560;-74
2022/07/19 06:35:08;;;;;;;93.13;9.02;;;23.30;48.70;;;;;;5093340;28;20042;-76
2022/07/19 06:37:34;;;;;;;35.92;6.80;;;23.30;48.30;;;;;;5110609;28;20476;-73
2022/07/19 06:40:00;;;;;;;20.00;7.07;;;23.40;48.00;;;;;;5098033;28;20050;-71
2022/07/19 06:42:25;;;;;;;18.60;6.82;;;23.50;48.00;;;;;;5092951;28;20074;-76
2022/07/19 06:44:51;;;;;;;12.63;6.13;;;23.60;47.70;;;;;;5105949;28;20042;-75
2022/07/19 06:47:17;;;;;;;220.25;16.80;;;23.70;47.50;;;;;;5113306;28;20408;-74
2022/07/19 06:49:43;;;;;;;26.38;8.43;;;23.70;47.30;;;;;;5113183;28;20101;-74
2022/07/19 06:52:09;;;;;;;379.00;22.98;;;23.80;47.20;;;;;;5111265;28;20042;-73
2022/07/19 06:54:34;;;;;;;42.33;9.85;;;23.90;47.20;;;;;;5113001;28;20027;-76
2022/07/19 06:57:01;;;;;;;195.38;15.32;;;24.00;47.30;;;;;;5109550;28;20030;-75
2022/07/19 06:59:26;;;;;;;24.63;8.90;;;24.10;47.00;;;;;;5103190;27;20015;-72
2022/07/19 07:01:53;;;;;;;22.42;8.07;;;24.10;46.80;;;;;;5114802;28;20038;-72
2022/07/19 07:04:19;;;;;;;45.55;8.65;;;24.20;46.60;;;;;;5109106;27;20024;-76
2022/07/19 07:06:45;;;;;;;36.92;7.03;;;24.30;46.70;;;;;;5115364;28;20046;-74
2022/07/19 07:09:11;;;;;;;59.28;8.88;;;24.40;46.60;;;;;;5115026;28;20027;-76
2022/07/19 07:11:36;;;;;;;18.65;7.75;;;24.50;46.10;;;;;;5117204;28;20358;-74
2022/07/19 07:14:02;;;;;;;15.38;6.82;;;24.50;45.40;;;;;;5117344;28;20055;-73
2022/07/19 07:16:28;;;;;;;13.30;6.90;;;24.60;45.00;;;;;;5117278;28;20024;-71
2022/07/19 07:18:54;;;;;;;22.55;6.65;;;24.70;45.10;;;;;;5117093;28;20490;-72
2022/07/19 07:21:20;;;;;;;17.15;6.15;;;24.70;45.40;;;;;;5115674;28;20043;-72
2022/07/19 07:23:46;;;;;;;19.33;8.02;;;24.80;45.10;;;;;;5116870;28;20019;-72
2022/07/19 07:26:11;;;;;;;15.75;7.10;;;24.90;45.10;;;;;;5116750;28;20088;-74
2022/07/19 07:28:37;;;;;;;15.27;6.30;;;25.00;44.50;;;;;;5116794;27;20031;-72
2022/07/19 07:31:03;;;;;;;15.02;5.95;;;25.10;44.70;;;;;;5115854;28;20028;-70
2022/07/19 07:33:29;;;;;;;11.93;5.50;;;25.10;44.40;;;;;;5114913;28;20365;-74
2022/07/19 07:35:55;;;;;;;11.25;5.72;;;25.20;44.40;;;;;;5096385;28;20078;-73
2022/07/19 07:38:21;;;;;;;14.00;5.35;;;25.30;44.30;;;;;;5096165;28;20053;-76
2022/07/19 07:40:47;;;;;;;14.20;5.60;;;25.30;43.90;;;;;;5094896;28;20028;-70
2022/07/19 07:43:13;;;;;;;15.88;6.05;;;25.40;43.70;;;;;;5096162;28;20103;-74
2022/07/19 07:45:39;;;;;;;13.50;5.55;;;25.50;43.60;;;;;;5095819;28;20114;-72
2022/07/19 07:48:04;;;;;;;15.18;5.22;;;25.60;43.70;;;;;;5096098;28;20095;-72
2022/07/19 07:50:30;;;;;;;14.88;6.00;;;25.70;43.60;;;;;;5096110;28;20039;-72
2022/07/19 07:52:56;;;;;;;11.25;5.10;;;25.80;43.80;;;;;;5096021;28;20020;-75
2022/07/19 07:55:22;;;;;;;11.00;5.65;;;25.80;43.60;;;;;;5111759;28;20056;-73
2022/07/19 07:57:48;;;;;;;11.27;4.95;;;25.90;43.40;;;;;;5095994;28;20023;-71
2022/07/19 08:00:14;;;;;;;10.43;4.55;;;26.00;42.80;;;;;;5094693;28;20389;-74
2022/07/19 08:02:44;;;;;;;7.80;3.97;;;26.10;42.70;;;;;;5095808;28;20031;-73
2022/07/19 08:05:11;;;;;;;7.70;3.80;;;26.10;42.50;;;;;;5096184;28;20030;-74
2022/07/19 08:07:37;;;;;;;8.15;3.22;;;26.20;42.50;;;;;;5094467;28;20032;-73
2022/07/19 08:10:06;;;;;;;6.03;3.30;;;26.30;40.50;;;;;;5094490;28;20037;-71
2022/07/19 08:12:32;;;;;;;3.28;2.40;;;26.40;40.90;;;;;;5101794;28;20362;-75
2022/07/19 08:14:58;;;;;;;9.38;3.53;;;26.40;40.70;;;;;;5114666;28;20035;-73
2022/07/19 08:17:24;;;;;;;5.78;2.33;;;26.60;40.50;;;;;;5114597;28;20030;-70
2022/07/19 08:19:50;;;;;;;6.88;2.00;;;26.60;40.80;;;;;;5115892;28;20035;-74
2022/07/19 08:22:18;;;;;;;4.25;1.73;;;26.70;40.10;;;;;;5115895;28;20106;-71
2022/07/19 08:24:45;;;;;;;13.02;2.42;;;26.70;40.10;;;;;;5115887;28;20476;-72
2022/07/19 08:27:10;;;;;;;3.55;1.73;;;26.80;39.70;;;;;;5115833;28;20034;-73
2022/07/19 08:29:36;;;;;;;5.97;2.00;;;26.90;40.20;;;;;;5115902;28;20457;-71
2022/07/19 08:32:02;;;;;;;4.35;2.25;;;27.00;40.20;;;;;;5115856;28;20023;-75
2022/07/19 08:34:28;;;;;;;5.22;2.33;;;27.10;39.70;;;;;;5113751;28;20076;-72
2022/07/19 08:36:54;;;;;;;8.35;2.60;;;27.10;38.90;;;;;;5114465;28;20024;-71
2022/07/19 08:39:20;;;;;;;6.05;1.95;;;27.20;38.50;;;;;;5115597;28;20043;-71
2022/07/19 08:41:46;;;;;;;5.47;2.58;;;27.30;38.30;;;;;;5114387;28;20015;-75
2022/07/19 08:44:13;;;;;;;5.70;2.78;;;27.40;38.00;;;;;;5114315;28;20431;-71
2022/07/19 08:46:42;;;;;;;5.95;1.80;;;27.40;38.00;;;;;;5114313;28;20103;-73
2022/07/19 08:49:11;;;;;;;6.60;2.25;;;27.50;37.60;;;;;;5115340;28;20038;-72
2022/07/19 08:51:37;;;;;;;7.40;2.33;;;27.60;36.90;;;;;;5115360;28;20464;-74
2022/07/19 08:54:04;;;;;;;5.10;1.83;;;27.60;37.40;;;;;;5115371;28;20529;-73
2022/07/19 08:59:14;;;;;;;3.13;1.80;;;27.70;36.30;;;;;;5094953;28;20073;-75
2022/07/19 09:01:40;;;;;;;3.28;1.80;;;27.80;37.00;;;;;;5094815;28;20057;-72
2022/07/19 09:04:17;;;;;;;10.63;1.92;;;27.90;36.50;;;;;;5093688;28;20111;-74
2022/07/19 09:06:45;;;;;;;2.85;1.63;;;28.00;36.00;;;;;;5094809;28;20028;-71
2022/07/19 09:09:12;;;;;;;4.30;1.90;;;28.00;35.90;;;;;;5094805;28;20430;-71
2022/07/19 09:11:53;;;;;;;6.50;1.75;;;28.10;36.20;;;;;;5093710;28;20048;-72
2022/07/19 09:14:25;;;;;;;2.95;1.45;;;28.20;36.10;;;;;;5094748;28;20030;-72
2022/07/19 09:17:11;;;;;;;2.35;1.50;;;28.30;36.20;;;;;;5093363;28;20028;-69
2022/07/19 09:19:40;;;;;;;2.35;1.42;;;28.30;36.60;;;;;;5094505;28;20020;-76
2022/07/19 09:22:16;;;;;;;6.82;1.63;;;28.40;36.30;;;;;;5094468;28;20115;-72
2022/07/19 09:24:45;;;;;;;3.10;1.52;;;28.50;36.00;;;;;;5093230;28;20059;-73
2022/07/19 09:27:13;;;;;;;3.92;1.52;;;28.60;34.80;;;;;;5094366;28;20096;-73
2022/07/19 09:29:45;;;;;;;7.05;2.05;;;28.60;35.00;;;;;;5094327;28;20026;-73
2022/07/19 09:32:19;;;;;;;5.90;1.42;;;28.70;35.50;;;;;;5094302;28;20054;-73
2022/07/19 09:34:56;;;;;;;2.45;1.42;;;28.80;34.70;;;;;;5094693;28;20113;-74
2022/07/19 09:37:27;;;;;;;9.10;1.42;;;28.90;35.00;;;;;;5094372;28;20485;-70
2022/07/19 09:40:05;;;;;;;19.42;1.92;;;29.00;34.80;;;;;;5094171;28;20036;-73
2022/07/19 09:42:43;;;;;;;3.60;1.67;;;29.00;33.70;;;;;;5094098;28;20024;-71
2022/07/19 09:45:12;;;;;;;4.40;1.50;;;29.10;32.20;;;;;;5094156;28;20031;-73
2022/07/19 09:47:40;;;;;;;2.58;1.40;;;29.20;33.40;;;;;;5093973;28;20423;-70
2022/07/19 09:50:09;;;;;;;12.70;1.20;;;29.20;32.70;;;;;;5093978;28;20038;-73
2022/07/19 09:52:35;;;;;;;4.65;1.33;;;29.30;32.90;;;;;;5093953;28;20028;-71
2022/07/19 09:55:05;;;;;;;5.45;1.30;;;29.40;33.20;;;;;;5093699;28;20107;-72
2022/07/19 09:57:39;;;;;;;5.40;2.28;;;29.40;32.40;;;;;;5092838;28;20377;-73
2022/07/19 10:00:06;;;;;;;4.10;1.40;;;29.50;32.90;;;;;;5093785;28;20044;-70
2022/07/19 10:02:36;;;;;;;2.47;1.50;;;29.60;33.10;;;;;;5093673;28;20035;-71
2022/07/19 10:05:03;;;;;;;2.13;1.30;;;29.70;32.10;;;;;;5106600;28;20020;-73
2022/07/19 10:07:31;;;;;;;3.50;1.48;;;29.70;32.00;;;;;;5113969;28;20028;-74
2022/07/19 10:10:01;;;;;;;5.20;1.52;;;29.80;30.70;;;;;;5113985;28;20103;-73
2022/07/19 10:12:28;;;;;;;1.85;1.20;;;29.90;30.20;;;;;;5113951;28;20024;-70
2022/07/19 10:14:55;;;;;;;2.53;1.27;;;29.90;29.30;;;;;;5112676;28;20039;-70
2022/07/19 10:17:33;;;;;;;1.23;1.02;;;30.00;29.60;;;;;;5113942;28;20151;-69
2022/07/19 10:20:00;;;;;;;2.45;1.38;;;30.00;30.00;;;;;;5113712;28;20054;-74
2022/07/19 10:22:27;;;;;;;5.95;1.35;;;30.10;29.70;;;;;;5113796;28;20062;-73
2022/07/19 10:25:05;;;;;;;3.22;1.42;;;30.20;28.40;;;;;;5113759;28;20451;-73
2022/07/19 10:27:30;;;;;;;8.80;1.33;;;30.20;29.40;;;;;;5113874;28;20049;-71
2022/07/19 10:30:11;;;;;;;3.13;1.50;;;30.30;28.80;;;;;;5112382;28;20020;-75
2022/07/19 10:32:42;;;;;;;5.13;1.60;;;30.30;28.40;;;;;;5111719;28;20320;-71
2022/07/19 10:35:27;;;;;;;2.05;1.40;;;30.40;27.60;;;;;;5097156;28;20107;-70
2022/07/19 10:38:06;;;;;;;1.30;1.02;;;30.40;28.40;;;;;;5092084;28;20043;-72
2022/07/19 10:40:44;;;;;;;3.00;1.33;;;30.50;27.50;;;;;;5093195;28;20024;-69
2022/07/19 10:43:12;;;;;;;1.98;1.33;;;30.60;27.80;;;;;;5093214;28;20027;-72
2022/07/19 10:45:41;;;;;;;4.57;1.70;;;30.60;26.90;;;;;;5091897;28;20028;-73
2022/07/19 10:48:12;;;;;;;2.55;1.25;;;30.70;27.50;;;;;;5091850;28;20050;-74
2022/07/19 10:50:51;;;;;;;2.78;1.30;;;30.70;27.30;;;;;;5093252;28;20365;-72
2022/07/19 10:53:41;;;;;;;3.28;1.58;;;30.80;27.20;;;;;;5091697;28;20030;-71
2022/07/19 10:56:20;;;;;;;2.53;1.40;;;30.80;27.90;;;;;;5091691;28;20028;-73
2022/07/19 10:58:57;;;;;;;2.08;1.27;;;30.90;27.80;;;;;;5093078;28;20073;-73
2022/07/19 11:01:24;;;;;;;2.50;1.20;;;30.90;26.20;;;;;;5092880;28;20107;-74
2022/07/19 11:03:53;;;;;;;2.80;1.52;;;31.00;25.70;;;;;;5093288;28;20485;-74
2022/07/19 11:06:28;;;;;;;3.88;1.83;;;31.00;26.20;;;;;;5092969;28;20032;-70
2022/07/19 11:08:58;;;;;;;3.33;2.08;;;31.00;26.40;;;;;;5092895;28;20107;-74
2022/07/19 11:11:28;;;;;;;6.43;1.63;;;31.10;26.50;;;;;;5091714;28;20020;-70
2022/07/19 11:13:57;;;;;;;4.47;1.63;;;31.20;26.50;;;;;;5093024;28;20020;-72
2022/07/19 11:16:28;;;;;;;4.65;1.63;;;31.20;27.40;;;;;;5092888;28;20028;-73
2022/07/19 11:19:04;;;;;;;2.30;1.33;;;31.30;27.20;;;;;;5092914;28;20028;-73
2022/07/19 11:21:32;;;;;;;3.13;1.33;;;31.30;26.80;;;;;;5092701;28;20056;-70
2022/07/19 11:23:59;;;;;;;1.92;1.35;;;31.40;26.80;;;;;;5092801;28;20020;-75
2022/07/19 11:26:25;;;;;;;5.80;1.60;;;31.40;26.70;;;;;;5092863;28;20477;-73
2022/07/19 11:28:51;;;;;;;1.60;1.25;;;31.50;26.20;;;;;;5092623;28;20038;-73
2022/07/19 11:31:18;;;;;;;4.72;1.30;;;31.50;26.60;;;;;;5092850;28;20470;-72
2022/07/19 11:33:46;;;;;;;2.33;1.42;;;31.50;26.50;;;;;;5092940;28;20020;-75
2022/07/19 11:36:15;;;;;;;4.13;1.35;;;31.60;26.80;;;;;;5101081;28;20016;-71
2022/07/19 11:38:49;;;;;;;1.88;1.40;;;31.60;26.70;;;;;;5113114;28;20028;-71
2022/07/19 11:41:23;;;;;;;3.28;1.70;;;31.70;26.60;;;;;;5113069;28;20024;-73
2022/07/19 11:43:57;;;;;;;2.47;1.55;;;31.80;26.20;;;;;;5113464;28;20019;-71
2022/07/19 11:46:28;;;;;;;2.13;1.70;;;31.80;26.10;;;;;;5115538;28;20031;-71
2022/07/19 11:48:59;;;;;;;1.60;1.38;;;31.80;25.60;;;;;;5116787;28;20473;-71
2022/07/19 11:51:25;;;;;;;5.22;1.60;;;31.80;26.00;;;;;;5107627;28;20044;-71
2022/07/19 11:53:54;;;;;;;5.00;1.80;;;31.90;26.30;;;;;;5096337;28;20020;-71
2022/07/19 11:56:27;;;;;;;6.63;1.30;;;31.90;26.40;;;;;;5096187;28;20069;-72
2022/07/19 11:58:56;;;;;;;1.73;1.20;;;32.00;26.30;;;;;;5096184;28;20553;-73
2022/07/19 12:01:23;;;;;;;2.80;1.35;;;32.00;26.60;;;;;;5096125;28;20381;-71
2022/07/19 12:04:03;;;;;;;2.10;1.50;;;32.10;25.80;;;;;;5096127;28;20106;-70
2022/07/19 12:06:40;;;;;;;1.75;1.33;;;32.10;26.00;;;;;;5096051;28;20024;-71
2022/07/19 12:09:13;;;;;;;3.60;1.60;;;32.20;26.10;;;;;;5095918;28;20016;-70
2022/07/19 12:11:44;;;;;;;2.27;1.10;;;32.20;26.00;;;;;;5095959;28;20023;-73
2022/07/19 12:14:19;;;;;;;1.90;1.27;;;32.20;26.20;;;;;;5094734;28;20499;-71
2022/07/19 12:16:46;;;;;;;2.80;1.25;;;32.30;26.40;;;;;;5095941;28;20043;-70
2022/07/19 12:19:14;;;;;;;6.97;1.45;;;32.30;26.10;;;;;;5095854;28;20093;-72
2022/07/19 12:21:41;;;;;;;6.68;1.50;;;32.40;25.60;;;;;;5111454;28;20047;-71
2022/07/19 12:24:22;;;;;;;8.20;1.73;;;32.40;25.60;;;;;;5095816;28;20016;-69
2022/07/19 12:27:02;;;;;;;1.40;1.10;;;32.40;26.00;;;;;;5094579;28;20035;-70
2022/07/19 12:29:42;;;;;;;2.03;1.30;;;32.50;25.50;;;;;;5095704;28;20054;-70
2022/07/19 12:32:10;;;;;;;4.47;1.38;;;32.50;25.00;;;;;;5095610;28;20024;-71
2022/07/19 12:34:57;;;;;;;2.53;1.40;;;32.60;25.60;;;;;;5111536;27;20024;-71
2022/07/19 12:37:28;;;;;;;5.07;1.40;;;32.60;25.50;;;;;;5095552;28;20039;-72
2022/07/19 12:40:27;;;;;;;1.98;1.38;;;32.70;25.20;;;;;;5094119;28;20415;-70
2022/07/19 12:42:59;;;;;;;6.13;1.80;;;32.70;25.70;;;;;;5032983;28;20040;-73
2022/07/19 12:45:27;;;;;;;6.18;1.60;;;32.70;25.30;;;;;;5033141;28;20452;-70
2022/07/19 12:47:53;;;;;;;2.20;1.30;;;32.80;24.80;;;;;;5032935;28;20098;-71
2022/07/19 12:50:23;;;;;;;2.80;1.48;;;32.80;24.60;;;;;;5026143;28;20597;-72
2022/07/19 12:52:52;;;;;;;3.80;2.05;;;32.80;24.30;;;;;;5052738;28;20044;-73
2022/07/19 12:55:18;;;;;;;2.30;1.33;;;32.90;23.70;;;;;;5052007;28;20659;-70